sensor_id;sensor_type;location;lat;lon;timestamp;temperature;humidity
72206;DHT22;60111;48.286;7.812;2022-08-21T00:01:48;16.40;97.60
72206;DHT22;60111;48.286;7.812;2022-08-21T00:04:21;16.40;97.50
72206;DHT22;60111;48.286;7.812;2022-08-21T00:07:01;16.40;97.70
72206;DHT22;60111;48.286;7.812;2022-08-21T00:09:28;16.40;97.40
72206;DHT22;60111;48.286;7.812;2022-08-21T00:12:01;16.40;97.60
72206;DHT22;60111;48.286;7.812;2022-08-21T00:14:34;16.40;97.40
72206;DHT22;60111;48.286;7.812;2022-08-21T00:17:08;16.30;97.50
72206;DHT22;60111;48.286;7.812;2022-08-21T00:19:40;16.30;97.70
72206;DHT22;60111;48.286;7.812;2022-08-21T00:22:13;16.20;97.40
72206;DHT22;60111;48.286;7.812;2022-08-21T00:24:45;16.20;97.60
72206;DHT22;60111;48.286;7.812;2022-08-21T00:27:18;16.10;98.10
72206;DHT22;60111;48.286;7.812;2022-08-21T00:29:51;16.10;98.10
72206;DHT22;60111;48.286;7.812;2022-08-21T00:32:26;16.10;97.90
72206;DHT22;60111;48.286;7.812;2022-08-21T00:35:00;16.10;97.70
72206;DHT22;60111;48.286;7.812;2022-08-21T00:37:33;16.00;98.20
72206;DHT22;60111;48.286;7.812;2022-08-21T00:40:12;16.00;98.10
72206;DHT22;60111;48.286;7.812;2022-08-21T00:42:43;16.00;98.00
72206;DHT22;60111;48.286;7.812;2022-08-21T00:45:16;15.90;98.00
72206;DHT22;60111;48.286;7.812;2022-08-21T00:47:49;15.90;98.10
72206;DHT22;60111;48.286;7.812;2022-08-21T00:50:25;15.90;97.90
72206;DHT22;60111;48.286;7.812;2022-08-21T00:52:57;15.80;98.10
72206;DHT22;60111;48.286;7.812;2022-08-21T00:55:31;15.80;98.50
72206;DHT22;60111;48.286;7.812;2022-08-21T00:58:07;15.80;98.60
72206;DHT22;60111;48.286;7.812;2022-08-21T01:00:42;15.70;98.30
72206;DHT22;60111;48.286;7.812;2022-08-21T01:03:18;15.60;98.60
72206;DHT22;60111;48.286;7.812;2022-08-21T01:05:52;15.60;98.40
72206;DHT22;60111;48.286;7.812;2022-08-21T01:08:24;15.50;98.50
72206;DHT22;60111;48.286;7.812;2022-08-21T01:10:59;15.50;98.90
72206;DHT22;60111;48.286;7.812;2022-08-21T01:13:34;15.50;99.10
72206;DHT22;60111;48.286;7.812;2022-08-21T01:16:09;15.40;98.80
72206;DHT22;60111;48.286;7.812;2022-08-21T01:18:42;15.40;98.70
72206;DHT22;60111;48.286;7.812;2022-08-21T01:21:21;15.40;99.00
72206;DHT22;60111;48.286;7.812;2022-08-21T01:23:55;15.30;98.90
72206;DHT22;60111;48.286;7.812;2022-08-21T01:26:30;15.30;99.10
72206;DHT22;60111;48.286;7.812;2022-08-21T01:29:25;15.30;99.20
72206;DHT22;60111;48.286;7.812;2022-08-21T01:31:54;15.20;98.90
72206;DHT22;60111;48.286;7.812;2022-08-21T01:34:27;15.20;98.90
72206;DHT22;60111;48.286;7.812;2022-08-21T01:37:00;15.20;99.40
72206;DHT22;60111;48.286;7.812;2022-08-21T01:39:34;15.20;99.50
72206;DHT22;60111;48.286;7.812;2022-08-21T01:42:07;15.20;99.20
72206;DHT22;60111;48.286;7.812;2022-08-21T01:44:40;15.20;99.50
72206;DHT22;60111;48.286;7.812;2022-08-21T01:47:14;15.20;99.40
72206;DHT22;60111;48.286;7.812;2022-08-21T01:49:47;15.20;99.80
72206;DHT22;60111;48.286;7.812;2022-08-21T01:52:20;15.20;99.30
72206;DHT22;60111;48.286;7.812;2022-08-21T01:54:53;15.10;99.60
72206;DHT22;60111;48.286;7.812;2022-08-21T01:57:25;15.00;99.60
72206;DHT22;60111;48.286;7.812;2022-08-21T01:59:58;15.00;99.50
72206;DHT22;60111;48.286;7.812;2022-08-21T02:02:31;15.00;99.30
72206;DHT22;60111;48.286;7.812;2022-08-21T02:05:04;15.00;99.10
72206;DHT22;60111;48.286;7.812;2022-08-21T02:07:43;15.00;99.60
72206;DHT22;60111;48.286;7.812;2022-08-21T02:10:25;14.90;99.80
72206;DHT22;60111;48.286;7.812;2022-08-21T02:12:54;14.90;99.90
72206;DHT22;60111;48.286;7.812;2022-08-21T02:15:29;14.90;99.80
72206;DHT22;60111;48.286;7.812;2022-08-21T02:18:02;14.80;99.80
72206;DHT22;60111;48.286;7.812;2022-08-21T02:20:42;14.90;99.90
72206;DHT22;60111;48.286;7.812;2022-08-21T02:23:15;14.80;99.70
72206;DHT22;60111;48.286;7.812;2022-08-21T02:25:48;14.80;99.70
72206;DHT22;60111;48.286;7.812;2022-08-21T02:28:21;14.80;99.60
72206;DHT22;60111;48.286;7.812;2022-08-21T02:30:54;14.80;99.70
72206;DHT22;60111;48.286;7.812;2022-08-21T02:33:27;14.80;99.90
72206;DHT22;60111;48.286;7.812;2022-08-21T02:36:01;14.90;99.50
72206;DHT22;60111;48.286;7.812;2022-08-21T02:38:36;15.00;99.20
72206;DHT22;60111;48.286;7.812;2022-08-21T02:41:16;15.00;98.80
72206;DHT22;60111;48.286;7.812;2022-08-21T02:43:49;15.20;98.50
72206;DHT22;60111;48.286;7.812;2022-08-21T02:46:22;15.20;98.20
72206;DHT22;60111;48.286;7.812;2022-08-21T02:48:55;15.20;98.90
72206;DHT22;60111;48.286;7.812;2022-08-21T02:51:27;15.10;98.70
72206;DHT22;60111;48.286;7.812;2022-08-21T02:54:00;15.10;98.80
72206;DHT22;60111;48.286;7.812;2022-08-21T02:56:34;15.10;98.60
72206;DHT22;60111;48.286;7.812;2022-08-21T02:59:07;15.10;98.60
72206;DHT22;60111;48.286;7.812;2022-08-21T03:01:39;15.00;98.60
72206;DHT22;60111;48.286;7.812;2022-08-21T03:04:12;14.90;98.70
72206;DHT22;60111;48.286;7.812;2022-08-21T03:06:45;14.90;98.70
72206;DHT22;60111;48.286;7.812;2022-08-21T03:09:17;14.80;98.80
72206;DHT22;60111;48.286;7.812;2022-08-21T03:11:52;14.70;99.10
72206;DHT22;60111;48.286;7.812;2022-08-21T03:14:25;14.70;99.50
72206;DHT22;60111;48.286;7.812;2022-08-21T03:16:59;14.70;99.60
72206;DHT22;60111;48.286;7.812;2022-08-21T03:19:32;14.60;99.70
72206;DHT22;60111;48.286;7.812;2022-08-21T03:22:05;14.60;99.80
72206;DHT22;60111;48.286;7.812;2022-08-21T03:24:37;14.60;99.90
72206;DHT22;60111;48.286;7.812;2022-08-21T03:27:10;14.60;99.80
72206;DHT22;60111;48.286;7.812;2022-08-21T03:29:43;14.60;99.90
72206;DHT22;60111;48.286;7.812;2022-08-21T03:32:18;14.60;99.90
72206;DHT22;60111;48.286;7.812;2022-08-21T03:34:51;14.50;99.90
72206;DHT22;60111;48.286;7.812;2022-08-21T03:37:23;14.50;99.90
72206;DHT22;60111;48.286;7.812;2022-08-21T03:39:56;14.50;99.90
72206;DHT22;60111;48.286;7.812;2022-08-21T03:42:29;14.40;99.90
72206;DHT22;60111;48.286;7.812;2022-08-21T03:45:02;14.40;99.90
72206;DHT22;60111;48.286;7.812;2022-08-21T03:47:36;14.40;99.90
72206;DHT22;60111;48.286;7.812;2022-08-21T03:50:09;14.40;99.90
72206;DHT22;60111;48.286;7.812;2022-08-21T03:52:42;14.30;99.90
72206;DHT22;60111;48.286;7.812;2022-08-21T03:55:16;14.30;99.90
72206;DHT22;60111;48.286;7.812;2022-08-21T03:57:48;14.30;99.90
72206;DHT22;60111;48.286;7.812;2022-08-21T04:00:22;14.30;99.90
72206;DHT22;60111;48.286;7.812;2022-08-21T04:02:55;14.30;99.90
72206;DHT22;60111;48.286;7.812;2022-08-21T04:05:28;14.30;99.90
72206;DHT22;60111;48.286;7.812;2022-08-21T04:08:04;14.30;99.90
72206;DHT22;60111;48.286;7.812;2022-08-21T04:10:39;14.30;99.90
72206;DHT22;60111;48.286;7.812;2022-08-21T04:13:12;14.30;99.90
72206;DHT22;60111;48.286;7.812;2022-08-21T04:15:46;14.30;99.90
72206;DHT22;60111;48.286;7.812;2022-08-21T04:18:19;14.30;99.80
72206;DHT22;60111;48.286;7.812;2022-08-21T04:20:53;14.30;99.80
72206;DHT22;60111;48.286;7.812;2022-08-21T04:23:26;14.30;99.90
72206;DHT22;60111;48.286;7.812;2022-08-21T04:25:59;14.30;99.90
72206;DHT22;60111;48.286;7.812;2022-08-21T04:28:31;14.30;99.70
72206;DHT22;60111;48.286;7.812;2022-08-21T04:31:04;14.40;99.90
72206;DHT22;60111;48.286;7.812;2022-08-21T04:33:38;14.30;99.90
72206;DHT22;60111;48.286;7.812;2022-08-21T04:36:11;14.30;99.90
72206;DHT22;60111;48.286;7.812;2022-08-21T04:38:44;14.30;99.90
72206;DHT22;60111;48.286;7.812;2022-08-21T04:41:16;14.30;99.90
72206;DHT22;60111;48.286;7.812;2022-08-21T04:43:50;14.20;99.90
72206;DHT22;60111;48.286;7.812;2022-08-21T04:46:26;14.20;99.90
72206;DHT22;60111;48.286;7.812;2022-08-21T04:48:59;14.20;99.90
72206;DHT22;60111;48.286;7.812;2022-08-21T04:51:34;14.20;99.90
72206;DHT22;60111;48.286;7.812;2022-08-21T04:54:22;14.30;99.90
72206;DHT22;60111;48.286;7.812;2022-08-21T04:56:59;14.30;99.90
72206;DHT22;60111;48.286;7.812;2022-08-21T04:59:41;14.30;99.90
72206;DHT22;60111;48.286;7.812;2022-08-21T05:02:13;14.30;99.90
72206;DHT22;60111;48.286;7.812;2022-08-21T05:04:49;14.30;99.90
72206;DHT22;60111;48.286;7.812;2022-08-21T05:07:24;14.30;99.90
72206;DHT22;60111;48.286;7.812;2022-08-21T05:09:59;14.30;99.90
72206;DHT22;60111;48.286;7.812;2022-08-21T05:12:32;14.30;99.90
72206;DHT22;60111;48.286;7.812;2022-08-21T05:15:05;14.30;99.90
72206;DHT22;60111;48.286;7.812;2022-08-21T05:17:39;14.30;99.90
72206;DHT22;60111;48.286;7.812;2022-08-21T05:20:13;14.40;99.90
72206;DHT22;60111;48.286;7.812;2022-08-21T05:22:46;14.40;99.90
72206;DHT22;60111;48.286;7.812;2022-08-21T05:25:18;14.40;99.90
72206;DHT22;60111;48.286;7.812;2022-08-21T05:27:52;14.40;99.90
72206;DHT22;60111;48.286;7.812;2022-08-21T05:30:25;14.40;99.90
72206;DHT22;60111;48.286;7.812;2022-08-21T05:32:59;14.50;99.90
72206;DHT22;60111;48.286;7.812;2022-08-21T05:35:33;14.50;99.90
72206;DHT22;60111;48.286;7.812;2022-08-21T05:38:06;14.50;99.90
72206;DHT22;60111;48.286;7.812;2022-08-21T05:40:39;14.50;99.90
72206;DHT22;60111;48.286;7.812;2022-08-21T05:43:12;14.50;99.90
72206;DHT22;60111;48.286;7.812;2022-08-21T05:45:44;14.60;99.90
72206;DHT22;60111;48.286;7.812;2022-08-21T05:48:19;14.70;99.90
72206;DHT22;60111;48.286;7.812;2022-08-21T05:50:56;14.70;99.90
72206;DHT22;60111;48.286;7.812;2022-08-21T05:53:29;14.80;99.90
72206;DHT22;60111;48.286;7.812;2022-08-21T05:56:02;14.90;99.90
72206;DHT22;60111;48.286;7.812;2022-08-21T05:58:35;15.10;99.90
72206;DHT22;60111;48.286;7.812;2022-08-21T06:01:09;15.20;99.90
72206;DHT22;60111;48.286;7.812;2022-08-21T06:03:42;15.30;99.90
72206;DHT22;60111;48.286;7.812;2022-08-21T06:06:14;15.40;99.60
72206;DHT22;60111;48.286;7.812;2022-08-21T06:08:47;15.60;99.90
72206;DHT22;60111;48.286;7.812;2022-08-21T06:11:20;15.70;99.20
72206;DHT22;60111;48.286;7.812;2022-08-21T06:13:52;15.80;98.70
72206;DHT22;60111;48.286;7.812;2022-08-21T06:16:26;16.00;98.70
72206;DHT22;60111;48.286;7.812;2022-08-21T06:18:59;16.10;98.50
72206;DHT22;60111;48.286;7.812;2022-08-21T06:21:33;16.30;98.50
72206;DHT22;60111;48.286;7.812;2022-08-21T06:24:06;16.40;98.30
72206;DHT22;60111;48.286;7.812;2022-08-21T06:26:39;16.60;98.30
72206;DHT22;60111;48.286;7.812;2022-08-21T06:29:13;16.80;97.90
72206;DHT22;60111;48.286;7.812;2022-08-21T06:31:49;16.90;97.70
72206;DHT22;60111;48.286;7.812;2022-08-21T06:34:22;17.10;97.40
72206;DHT22;60111;48.286;7.812;2022-08-21T06:36:54;17.20;97.00
72206;DHT22;60111;48.286;7.812;2022-08-21T06:39:27;17.30;97.10
72206;DHT22;60111;48.286;7.812;2022-08-21T06:42:01;17.50;96.50
72206;DHT22;60111;48.286;7.812;2022-08-21T06:44:34;17.70;96.40
72206;DHT22;60111;48.286;7.812;2022-08-21T06:47:06;17.80;95.90
72206;DHT22;60111;48.286;7.812;2022-08-21T06:49:39;18.00;95.90
72206;DHT22;60111;48.286;7.812;2022-08-21T06:52:13;18.10;95.40
72206;DHT22;60111;48.286;7.812;2022-08-21T06:54:46;18.20;94.50
72206;DHT22;60111;48.286;7.812;2022-08-21T06:57:18;18.30;94.10
72206;DHT22;60111;48.286;7.812;2022-08-21T06:59:54;18.50;93.60
72206;DHT22;60111;48.286;7.812;2022-08-21T07:02:27;18.50;93.30
72206;DHT22;60111;48.286;7.812;2022-08-21T07:05:00;18.60;93.40
72206;DHT22;60111;48.286;7.812;2022-08-21T07:07:34;18.70;92.60
72206;DHT22;60111;48.286;7.812;2022-08-21T07:10:07;18.80;92.60
72206;DHT22;60111;48.286;7.812;2022-08-21T07:12:40;18.80;92.40
72206;DHT22;60111;48.286;7.812;2022-08-21T07:15:12;18.90;93.30
72206;DHT22;60111;48.286;7.812;2022-08-21T07:17:45;19.10;93.80
72206;DHT22;60111;48.286;7.812;2022-08-21T07:20:18;19.20;93.70
72206;DHT22;60111;48.286;7.812;2022-08-21T07:22:51;19.30;92.60
72206;DHT22;60111;48.286;7.812;2022-08-21T07:25:23;19.40;93.10
72206;DHT22;60111;48.286;7.812;2022-08-21T07:27:56;19.50;92.80
72206;DHT22;60111;48.286;7.812;2022-08-21T07:30:29;19.70;92.00
72206;DHT22;60111;48.286;7.812;2022-08-21T07:33:03;19.80;91.20
72206;DHT22;60111;48.286;7.812;2022-08-21T07:35:36;19.80;91.50
72206;DHT22;60111;48.286;7.812;2022-08-21T07:38:09;19.90;91.30
72206;DHT22;60111;48.286;7.812;2022-08-21T07:40:41;19.90;92.10
72206;DHT22;60111;48.286;7.812;2022-08-21T07:43:14;20.10;91.20
72206;DHT22;60111;48.286;7.812;2022-08-21T07:45:49;20.20;91.00
72206;DHT22;60111;48.286;7.812;2022-08-21T07:48:22;20.30;91.30
72206;DHT22;60111;48.286;7.812;2022-08-21T07:50:55;20.40;91.00
72206;DHT22;60111;48.286;7.812;2022-08-21T07:53:28;20.60;90.80
72206;DHT22;60111;48.286;7.812;2022-08-21T07:56:01;20.70;90.30
72206;DHT22;60111;48.286;7.812;2022-08-21T07:58:36;20.80;90.10
72206;DHT22;60111;48.286;7.812;2022-08-21T08:01:09;20.90;90.90
72206;DHT22;60111;48.286;7.812;2022-08-21T08:03:42;21.00;89.20
72206;DHT22;60111;48.286;7.812;2022-08-21T08:06:14;21.10;87.00
72206;DHT22;60111;48.286;7.812;2022-08-21T08:08:49;21.10;87.40
72206;DHT22;60111;48.286;7.812;2022-08-21T08:11:22;21.20;86.20
72206;DHT22;60111;48.286;7.812;2022-08-21T08:13:54;21.30;87.30
72206;DHT22;60111;48.286;7.812;2022-08-21T08:16:28;21.40;85.30
72206;DHT22;60111;48.286;7.812;2022-08-21T08:19:01;21.50;85.10
72206;DHT22;60111;48.286;7.812;2022-08-21T08:21:34;21.60;85.80
72206;DHT22;60111;48.286;7.812;2022-08-21T08:24:09;21.70;83.60
72206;DHT22;60111;48.286;7.812;2022-08-21T08:26:41;21.90;83.80
72206;DHT22;60111;48.286;7.812;2022-08-21T08:29:14;21.90;83.50
72206;DHT22;60111;48.286;7.812;2022-08-21T08:31:46;22.10;81.90
72206;DHT22;60111;48.286;7.812;2022-08-21T08:34:19;22.30;78.70
72206;DHT22;60111;48.286;7.812;2022-08-21T08:36:53;22.40;82.70
72206;DHT22;60111;48.286;7.812;2022-08-21T08:39:26;22.50;79.90
72206;DHT22;60111;48.286;7.812;2022-08-21T08:42:07;22.70;80.70
72206;DHT22;60111;48.286;7.812;2022-08-21T08:44:44;22.90;81.50
72206;DHT22;60111;48.286;7.812;2022-08-21T08:47:18;23.10;80.10
72206;DHT22;60111;48.286;7.812;2022-08-21T08:50:18;23.30;76.20
72206;DHT22;60111;48.286;7.812;2022-08-21T08:52:57;23.50;78.40
72206;DHT22;60111;48.286;7.812;2022-08-21T08:55:40;23.60;75.20
72206;DHT22;60111;48.286;7.812;2022-08-21T08:58:22;23.60;73.70
72206;DHT22;60111;48.286;7.812;2022-08-21T09:00:55;23.70;73.20
72206;DHT22;60111;48.286;7.812;2022-08-21T09:03:28;23.80;74.70
72206;DHT22;60111;48.286;7.812;2022-08-21T09:09:02;24.00;72.70
72206;DHT22;60111;48.286;7.812;2022-08-21T09:11:45;24.20;71.90
72206;DHT22;60111;48.286;7.812;2022-08-21T09:17:04;24.30;69.20
72206;DHT22;60111;48.286;7.812;2022-08-21T09:25:26;24.70;67.70
72206;DHT22;60111;48.286;7.812;2022-08-21T09:27:59;24.70;68.10
72206;DHT22;60111;48.286;7.812;2022-08-21T09:30:32;24.90;69.60
72206;DHT22;60111;48.286;7.812;2022-08-21T09:33:09;24.90;68.60
72206;DHT22;60111;48.286;7.812;2022-08-21T09:35:55;25.10;65.50
72206;DHT22;60111;48.286;7.812;2022-08-21T09:38:34;25.20;65.70
72206;DHT22;60111;48.286;7.812;2022-08-21T09:41:09;25.30;64.10
72206;DHT22;60111;48.286;7.812;2022-08-21T09:43:51;25.50;63.60
72206;DHT22;60111;48.286;7.812;2022-08-21T09:46:24;25.40;66.60
72206;DHT22;60111;48.286;7.812;2022-08-21T09:49:02;25.50;66.30
72206;DHT22;60111;48.286;7.812;2022-08-21T09:51:36;25.70;65.80
72206;DHT22;60111;48.286;7.812;2022-08-21T09:54:15;25.80;67.50
72206;DHT22;60111;48.286;7.812;2022-08-21T09:57:01;26.00;65.50
72206;DHT22;60111;48.286;7.812;2022-08-21T09:59:51;26.10;63.20
72206;DHT22;60111;48.286;7.812;2022-08-21T10:05:17;26.10;65.10
72206;DHT22;60111;48.286;7.812;2022-08-21T10:07:50;26.20;64.60
72206;DHT22;60111;48.286;7.812;2022-08-21T10:10:30;26.30;63.10
72206;DHT22;60111;48.286;7.812;2022-08-21T10:13:21;26.40;62.00
72206;DHT22;60111;48.286;7.812;2022-08-21T10:16:21;26.40;63.00
72206;DHT22;60111;48.286;7.812;2022-08-21T10:19:02;26.60;60.00
72206;DHT22;60111;48.286;7.812;2022-08-21T10:27:22;26.90;58.00
72206;DHT22;60111;48.286;7.812;2022-08-21T10:29:59;27.00;58.40
72206;DHT22;60111;48.286;7.812;2022-08-21T10:35:34;27.30;59.30
72206;DHT22;60111;48.286;7.812;2022-08-21T10:41:29;27.50;53.60
72206;DHT22;60111;48.286;7.812;2022-08-21T10:49:22;27.80;55.50
72206;DHT22;60111;48.286;7.812;2022-08-21T10:52:10;28.00;55.60
72206;DHT22;60111;48.286;7.812;2022-08-21T10:57:16;28.00;52.90
72206;DHT22;60111;48.286;7.812;2022-08-21T10:59:58;28.00;52.30
72206;DHT22;60111;48.286;7.812;2022-08-21T11:02:37;28.10;50.50
72206;DHT22;60111;48.286;7.812;2022-08-21T11:05:24;28.20;53.30
72206;DHT22;60111;48.286;7.812;2022-08-21T11:08:02;28.20;50.50
72206;DHT22;60111;48.286;7.812;2022-08-21T11:16:10;28.40;51.60
72206;DHT22;60111;48.286;7.812;2022-08-21T11:18:41;28.50;50.60
72206;DHT22;60111;48.286;7.812;2022-08-21T11:21:36;28.40;53.80
72206;DHT22;60111;48.286;7.812;2022-08-21T11:24:17;28.60;53.10
72206;DHT22;60111;48.286;7.812;2022-08-21T11:29:37;28.80;51.60
72206;DHT22;60111;48.286;7.812;2022-08-21T11:35:45;29.10;54.70
72206;DHT22;60111;48.286;7.812;2022-08-21T11:38:40;29.10;50.60
72206;DHT22;60111;48.286;7.812;2022-08-21T11:41:30;28.80;49.60
72206;DHT22;60111;48.286;7.812;2022-08-21T11:44:16;28.30;50.80
72206;DHT22;60111;48.286;7.812;2022-08-21T11:47:00;28.10;50.60
72206;DHT22;60111;48.286;7.812;2022-08-21T11:52:19;28.10;54.30
72206;DHT22;60111;48.286;7.812;2022-08-21T11:57:54;28.10;56.30
72206;DHT22;60111;48.286;7.812;2022-08-21T12:00:29;28.30;50.80
72206;DHT22;60111;48.286;7.812;2022-08-21T12:03:14;28.20;52.00
72206;DHT22;60111;48.286;7.812;2022-08-21T12:05:52;28.30;52.60
72206;DHT22;60111;48.286;7.812;2022-08-21T12:08:43;28.60;53.70
72206;DHT22;60111;48.286;7.812;2022-08-21T12:16:39;28.70;49.40
72206;DHT22;60111;48.286;7.812;2022-08-21T12:24:48;28.90;47.90
72206;DHT22;60111;48.286;7.812;2022-08-21T12:27:29;28.90;46.80
72206;DHT22;60111;48.286;7.812;2022-08-21T12:30:18;28.70;49.80
72206;DHT22;60111;48.286;7.812;2022-08-21T12:32:54;28.60;50.20
72206;DHT22;60111;48.286;7.812;2022-08-21T12:35:26;28.70;49.60
72206;DHT22;60111;48.286;7.812;2022-08-21T12:38:09;28.90;50.00
72206;DHT22;60111;48.286;7.812;2022-08-21T12:40:44;29.20;50.20
72206;DHT22;60111;48.286;7.812;2022-08-21T12:43:20;29.40;46.60
72206;DHT22;60111;48.286;7.812;2022-08-21T12:45:52;29.40;47.50
72206;DHT22;60111;48.286;7.812;2022-08-21T12:51:22;29.20;49.20
72206;DHT22;60111;48.286;7.812;2022-08-21T12:53:58;29.10;47.90
72206;DHT22;60111;48.286;7.812;2022-08-21T12:56:33;28.90;46.60
72206;DHT22;60111;48.286;7.812;2022-08-21T12:59:11;28.70;47.50
72206;DHT22;60111;48.286;7.812;2022-08-21T13:01:48;28.60;51.30
72206;DHT22;60111;48.286;7.812;2022-08-21T13:04:39;28.50;47.00
72206;DHT22;60111;48.286;7.812;2022-08-21T13:07:05;28.60;49.20
72206;DHT22;60111;48.286;7.812;2022-08-21T13:09:53;28.70;51.40
72206;DHT22;60111;48.286;7.812;2022-08-21T13:12:22;28.70;46.90
72206;DHT22;60111;48.286;7.812;2022-08-21T13:14:58;28.80;47.70
72206;DHT22;60111;48.286;7.812;2022-08-21T13:17:34;29.10;48.30
72206;DHT22;60111;48.286;7.812;2022-08-21T13:20:22;29.30;44.40
72206;DHT22;60111;48.286;7.812;2022-08-21T13:22:55;29.10;42.80
72206;DHT22;60111;48.286;7.812;2022-08-21T13:25:29;28.90;44.60
72206;DHT22;60111;48.286;7.812;2022-08-21T13:28:10;28.90;45.60
72206;DHT22;60111;48.286;7.812;2022-08-21T13:30:51;28.80;45.20
72206;DHT22;60111;48.286;7.812;2022-08-21T13:33:25;28.80;46.70
72206;DHT22;60111;48.286;7.812;2022-08-21T13:36:17;28.90;45.30
72206;DHT22;60111;48.286;7.812;2022-08-21T13:38:51;29.10;45.80
72206;DHT22;60111;48.286;7.812;2022-08-21T13:44:05;29.10;44.40
72206;DHT22;60111;48.286;7.812;2022-08-21T13:46:38;29.20;45.70
72206;DHT22;60111;48.286;7.812;2022-08-21T13:49:13;29.30;44.90
72206;DHT22;60111;48.286;7.812;2022-08-21T13:51:47;29.50;43.80
72206;DHT22;60111;48.286;7.812;2022-08-21T13:54:27;29.70;44.90
72206;DHT22;60111;48.286;7.812;2022-08-21T13:57:00;29.70;39.90
72206;DHT22;60111;48.286;7.812;2022-08-21T13:59:35;29.50;43.90
72206;DHT22;60111;48.286;7.812;2022-08-21T14:02:23;29.50;42.80
72206;DHT22;60111;48.286;7.812;2022-08-21T14:05:01;29.50;41.30
72206;DHT22;60111;48.286;7.812;2022-08-21T14:07:37;29.30;41.70
72206;DHT22;60111;48.286;7.812;2022-08-21T14:10:16;29.10;42.30
72206;DHT22;60111;48.286;7.812;2022-08-21T14:12:54;29.20;41.70
72206;DHT22;60111;48.286;7.812;2022-08-21T14:15:30;29.10;43.80
72206;DHT22;60111;48.286;7.812;2022-08-21T14:18:17;29.20;42.20
72206;DHT22;60111;48.286;7.812;2022-08-21T14:20:51;29.40;42.60
72206;DHT22;60111;48.286;7.812;2022-08-21T14:23:25;29.60;42.20
72206;DHT22;60111;48.286;7.812;2022-08-21T14:26:00;29.70;41.40
72206;DHT22;60111;48.286;7.812;2022-08-21T14:28:39;29.80;41.70
72206;DHT22;60111;48.286;7.812;2022-08-21T14:31:21;29.80;39.90
72206;DHT22;60111;48.286;7.812;2022-08-21T14:33:57;29.60;40.10
72206;DHT22;60111;48.286;7.812;2022-08-21T14:36:30;29.70;42.20
72206;DHT22;60111;48.286;7.812;2022-08-21T14:39:02;29.80;38.70
72206;DHT22;60111;48.286;7.812;2022-08-21T14:41:36;29.80;38.40
72206;DHT22;60111;48.286;7.812;2022-08-21T14:44:09;29.80;42.80
72206;DHT22;60111;48.286;7.812;2022-08-21T14:46:45;29.90;40.10
72206;DHT22;60111;48.286;7.812;2022-08-21T14:49:16;29.90;39.30
72206;DHT22;60111;48.286;7.812;2022-08-21T14:51:49;29.80;38.10
72206;DHT22;60111;48.286;7.812;2022-08-21T14:54:28;30.00;39.70
72206;DHT22;60111;48.286;7.812;2022-08-21T14:57:09;30.00;38.80
72206;DHT22;60111;48.286;7.812;2022-08-21T14:59:38;29.90;38.40
72206;DHT22;60111;48.286;7.812;2022-08-21T15:02:12;29.70;39.80
72206;DHT22;60111;48.286;7.812;2022-08-21T15:04:44;29.70;41.10
72206;DHT22;60111;48.286;7.812;2022-08-21T15:07:18;29.80;40.50
72206;DHT22;60111;48.286;7.812;2022-08-21T15:09:51;29.80;38.90
72206;DHT22;60111;48.286;7.812;2022-08-21T15:12:25;29.70;40.60
72206;DHT22;60111;48.286;7.812;2022-08-21T15:14:58;29.70;41.60
72206;DHT22;60111;48.286;7.812;2022-08-21T15:17:30;29.70;41.20
72206;DHT22;60111;48.286;7.812;2022-08-21T15:20:03;29.90;40.70
72206;DHT22;60111;48.286;7.812;2022-08-21T15:22:37;30.00;39.50
72206;DHT22;60111;48.286;7.812;2022-08-21T15:25:12;30.00;37.50
72206;DHT22;60111;48.286;7.812;2022-08-21T15:27:45;30.10;39.10
72206;DHT22;60111;48.286;7.812;2022-08-21T15:30:18;30.10;41.70
72206;DHT22;60111;48.286;7.812;2022-08-21T15:32:50;30.20;42.60
72206;DHT22;60111;48.286;7.812;2022-08-21T15:35:24;30.30;42.00
72206;DHT22;60111;48.286;7.812;2022-08-21T15:37:57;30.30;40.00
72206;DHT22;60111;48.286;7.812;2022-08-21T15:40:30;30.30;40.80
72206;DHT22;60111;48.286;7.812;2022-08-21T15:43:05;30.30;39.60
72206;DHT22;60111;48.286;7.812;2022-08-21T15:45:37;30.30;38.00
72206;DHT22;60111;48.286;7.812;2022-08-21T15:48:10;30.30;38.50
72206;DHT22;60111;48.286;7.812;2022-08-21T15:50:43;30.10;35.00
72206;DHT22;60111;48.286;7.812;2022-08-21T15:53:20;29.80;38.20
72206;DHT22;60111;48.286;7.812;2022-08-21T15:55:50;29.80;36.30
72206;DHT22;60111;48.286;7.812;2022-08-21T15:58:23;29.70;37.60
72206;DHT22;60111;48.286;7.812;2022-08-21T16:00:59;29.70;38.00
72206;DHT22;60111;48.286;7.812;2022-08-21T16:03:33;29.60;39.50
72206;DHT22;60111;48.286;7.812;2022-08-21T16:06:15;29.60;37.20
72206;DHT22;60111;48.286;7.812;2022-08-21T16:08:49;29.50;37.50
72206;DHT22;60111;48.286;7.812;2022-08-21T16:11:22;29.50;37.00
72206;DHT22;60111;48.286;7.812;2022-08-21T16:13:54;29.50;37.90
72206;DHT22;60111;48.286;7.812;2022-08-21T16:16:28;29.50;36.30
72206;DHT22;60111;48.286;7.812;2022-08-21T16:19:03;29.40;36.70
72206;DHT22;60111;48.286;7.812;2022-08-21T16:21:38;29.40;36.70
72206;DHT22;60111;48.286;7.812;2022-08-21T16:24:11;29.40;34.20
72206;DHT22;60111;48.286;7.812;2022-08-21T16:26:44;29.40;35.10
72206;DHT22;60111;48.286;7.812;2022-08-21T16:29:18;29.40;37.00
72206;DHT22;60111;48.286;7.812;2022-08-21T16:31:51;29.40;34.10
72206;DHT22;60111;48.286;7.812;2022-08-21T16:34:24;29.50;33.30
72206;DHT22;60111;48.286;7.812;2022-08-21T16:36:56;29.50;32.90
72206;DHT22;60111;48.286;7.812;2022-08-21T16:39:29;29.50;32.50
72206;DHT22;60111;48.286;7.812;2022-08-21T16:42:02;29.50;32.90
72206;DHT22;60111;48.286;7.812;2022-08-21T16:44:35;29.40;35.00
72206;DHT22;60111;48.286;7.812;2022-08-21T16:47:08;29.40;39.10
72206;DHT22;60111;48.286;7.812;2022-08-21T16:49:41;29.30;36.20
72206;DHT22;60111;48.286;7.812;2022-08-21T16:52:14;29.10;36.70
72206;DHT22;60111;48.286;7.812;2022-08-21T16:54:47;28.90;36.60
72206;DHT22;60111;48.286;7.812;2022-08-21T16:57:19;28.80;36.40
72206;DHT22;60111;48.286;7.812;2022-08-21T16:59:52;28.60;37.90
72206;DHT22;60111;48.286;7.812;2022-08-21T17:02:33;28.60;39.30
72206;DHT22;60111;48.286;7.812;2022-08-21T17:05:00;28.60;39.00
72206;DHT22;60111;48.286;7.812;2022-08-21T17:07:33;28.50;37.80
72206;DHT22;60111;48.286;7.812;2022-08-21T17:10:07;28.50;39.50
72206;DHT22;60111;48.286;7.812;2022-08-21T17:12:42;28.40;39.40
72206;DHT22;60111;48.286;7.812;2022-08-21T17:15:20;28.30;38.70
72206;DHT22;60111;48.286;7.812;2022-08-21T17:17:53;28.10;38.60
72206;DHT22;60111;48.286;7.812;2022-08-21T17:20:28;28.00;39.10
72206;DHT22;60111;48.286;7.812;2022-08-21T17:23:01;27.90;39.20
72206;DHT22;60111;48.286;7.812;2022-08-21T17:25:36;27.80;39.60
72206;DHT22;60111;48.286;7.812;2022-08-21T17:28:19;27.70;40.70